createdAt,value
2017-04-19T15:31:13.685Z,21.6
2017-04-19T15:32:21.780Z,21.6
2017-04-19T15:33:29.861Z,21.7
2017-04-19T15:34:37.952Z,21.6
2017-04-19T15:35:46.026Z,21.6
2017-04-19T15:36:54.114Z,21.5
2017-04-19T15:38:02.200Z,21.4
2017-04-19T15:39:10.282Z,21.4
2017-04-19T15:40:18.411Z,21.4
2017-04-19T15:41:26.454Z,21.4
2017-04-19T15:42:34.562Z,21.4
2017-04-19T15:43:42.837Z,21.3
2017-04-19T15:44:50.740Z,21.3
2017-04-19T15:45:58.893Z,21.4
2017-04-19T15:47:06.878Z,21.4
2017-04-19T15:48:14.967Z,21.4
2017-04-19T15:49:23.225Z,21.4
2017-04-19T15:50:31.203Z,21.3
2017-04-19T15:51:39.223Z,21.3
2017-04-19T15:52:47.307Z,21.3
2017-04-19T15:53:55.391Z,21.4
2017-04-19T15:55:03.540Z,21.3
2017-04-19T15:56:11.561Z,21.3
2017-04-19T15:57:19.651Z,21.3
2017-04-19T15:58:27.734Z,21.2
2017-04-19T15:59:35.816Z,21.3
2017-04-19T16:00:43.906Z,21.3
2017-04-19T16:01:51.993Z,21.3
2017-04-19T16:03:00.145Z,21.2
2017-04-19T16:04:08.165Z,21.2
2017-04-19T16:05:16.248Z,21.2
2017-04-19T16:06:24.357Z,21.3
2017-04-19T16:07:32.422Z,21.1
2017-04-19T16:08:40.516Z,21.2
2017-04-19T16:09:48.596Z,21.2
2017-04-19T16:10:56.684Z,21.2
2017-04-19T16:12:04.771Z,21.1
2017-04-19T16:13:12.859Z,21.2
2017-04-19T16:14:20.940Z,21.2
2017-04-19T16:15:29.024Z,21.1
2017-04-19T16:16:37.112Z,21.1
2017-04-19T16:17:45.198Z,21.2
2017-04-19T16:18:53.281Z,21.2
2017-04-19T16:20:01.370Z,21.2
2017-04-19T16:21:09.454Z,21.2
2017-04-19T16:22:17.541Z,21.2
2017-04-19T16:23:25.648Z,21.2
2017-04-19T16:24:33.712Z,21.1
2017-04-19T16:25:41.794Z,21.0
2017-04-19T16:26:49.878Z,21.1
2017-04-19T16:27:57.968Z,21.0
2017-04-19T16:29:06.051Z,21.0
2017-04-19T16:30:14.136Z,21.0
2017-04-19T16:31:22.225Z,21.0
2017-04-19T16:32:30.310Z,21.1
2017-04-19T16:33:38.396Z,21.1
2017-04-19T16:34:46.481Z,21.1
2017-04-19T16:35:54.569Z,21.1
2017-04-19T16:37:02.657Z,21.1
2017-04-19T16:38:10.739Z,21.0
2017-04-19T16:39:18.825Z,21.0
2017-04-19T16:40:26.910Z,21.0
2017-04-19T16:41:34.997Z,21.0
2017-04-19T16:42:43.083Z,21.0
2017-04-19T16:43:51.169Z,21.0
2017-04-19T16:44:59.258Z,21.0
2017-04-19T16:46:07.342Z,21.0
2017-04-19T16:47:15.568Z,20.9
2017-04-19T16:48:23.516Z,21.0
2017-04-19T16:49:31.597Z,21.0
2017-04-19T16:50:39.682Z,20.9
2017-04-19T16:51:47.771Z,21.0
2017-04-19T16:52:55.853Z,21.0
2017-04-19T16:54:03.945Z,20.9
2017-04-19T16:55:12.029Z,21.0
2017-04-19T16:56:20.117Z,20.9
2017-04-19T16:57:28.212Z,20.9
2017-04-19T16:58:36.287Z,20.9
2017-04-19T16:59:44.374Z,20.9
2017-04-19T17:00:52.466Z,20.9
2017-04-19T17:02:00.544Z,20.9
2017-04-19T17:03:08.631Z,20.9
2017-04-19T17:04:16.722Z,20.9
2017-04-19T17:05:24.801Z,20.9
2017-04-19T17:06:32.887Z,20.9
2017-04-19T17:07:40.978Z,20.9
2017-04-19T17:08:49.061Z,20.9
2017-04-19T17:09:57.147Z,20.9
2017-04-19T17:11:05.234Z,20.9
2017-04-19T17:12:13.320Z,20.8
2017-04-19T17:13:21.399Z,20.9
2017-04-19T17:14:29.488Z,20.9
2017-04-19T17:15:37.578Z,20.8
2017-04-19T17:16:45.664Z,20.9
2017-04-19T17:17:53.745Z,20.9
2017-04-19T17:19:01.835Z,20.9
2017-04-19T17:20:09.917Z,20.9
2017-04-19T17:21:18.004Z,20.9
2017-04-19T17:22:26.090Z,20.9
2017-04-19T17:23:34.178Z,20.9
2017-04-19T17:24:42.263Z,20.9
2017-04-19T17:25:50.344Z,20.9
2017-04-19T17:26:58.642Z,20.9
2017-04-19T17:28:06.519Z,20.9
2017-04-19T17:29:14.604Z,20.9
2017-04-19T17:30:22.686Z,20.9
2017-04-19T17:31:30.780Z,20.9
2017-04-19T17:32:38.861Z,20.9
2017-04-19T17:33:46.942Z,20.9
2017-04-19T17:34:55.034Z,20.9
2017-04-19T17:36:03.124Z,20.9
2017-04-19T17:37:11.198Z,20.9
2017-04-19T17:38:19.287Z,20.9
2017-04-19T17:39:27.372Z,20.9
2017-04-19T17:40:35.465Z,20.9
2017-04-19T17:41:43.546Z,20.9
2017-04-19T17:42:51.635Z,20.9
2017-04-19T17:43:59.725Z,20.9
2017-04-19T17:45:07.810Z,20.9
2017-04-19T17:46:15.893Z,20.9
2017-04-19T17:47:23.978Z,21.0
2017-04-19T17:48:32.063Z,21.1
2017-04-19T17:49:40.145Z,21.0
2017-04-19T17:50:48.244Z,21.0
2017-04-19T17:51:56.334Z,21.0
2017-04-19T17:53:04.410Z,21.0
2017-04-19T17:54:12.499Z,21.1
2017-04-19T17:55:20.584Z,21.0
2017-04-19T17:56:28.676Z,21.0
2017-04-19T17:57:36.756Z,21.0
2017-04-19T17:58:44.846Z,21.1
2017-04-19T17:59:52.930Z,21.1
2017-04-19T18:01:01.014Z,21.1
2017-04-19T18:02:09.113Z,21.2
2017-04-19T18:03:17.196Z,21.2
2017-04-19T18:04:25.276Z,21.1
2017-04-19T18:05:33.363Z,21.2
2017-04-19T18:06:41.453Z,21.2
2017-04-19T18:07:49.546Z,21.2
2017-04-19T18:08:57.622Z,21.2
2017-04-19T18:10:05.710Z,21.2
2017-04-19T18:11:13.798Z,21.2
2017-04-19T18:12:21.880Z,21.2
2017-04-19T18:13:29.963Z,21.2
2017-04-19T18:14:38.056Z,21.3
2017-04-19T18:15:46.143Z,21.4
2017-04-19T18:16:54.226Z,21.3
2017-04-19T18:18:02.314Z,21.3
2017-04-19T18:19:10.397Z,21.4
2017-04-19T18:20:18.483Z,21.4
2017-04-19T18:21:26.565Z,21.3
2017-04-19T18:22:34.655Z,21.4
2017-04-19T18:23:42.750Z,21.4
2017-04-19T18:24:50.823Z,21.3
2017-04-19T18:25:58.913Z,21.4
2017-04-19T18:27:06.997Z,21.4
2017-04-19T18:28:15.080Z,21.4
2017-04-19T18:29:23.169Z,21.4
2017-04-19T18:30:31.254Z,21.5
2017-04-19T18:31:39.341Z,21.5
2017-04-19T18:32:47.421Z,21.5
2017-04-19T18:33:55.511Z,21.5
2017-04-19T18:35:03.596Z,21.6
2017-04-19T18:36:11.687Z,21.5
2017-04-19T18:37:19.772Z,21.6
2017-04-19T18:38:27.870Z,21.6
2017-04-19T18:39:35.939Z,21.6
2017-04-19T18:40:44.025Z,21.7
2017-04-19T18:41:52.115Z,21.6
2017-04-19T18:43:00.199Z,21.6
2017-04-19T18:44:08.284Z,21.6
2017-04-19T18:45:16.373Z,21.6
2017-04-19T18:46:24.454Z,21.6
2017-04-19T18:47:32.545Z,21.6
2017-04-19T18:48:40.630Z,21.6
2017-04-19T18:49:48.716Z,21.6
2017-04-19T18:50:56.801Z,21.7
2017-04-19T18:52:04.885Z,21.6
2017-04-19T18:53:12.976Z,21.6
2017-04-19T18:54:21.058Z,21.7
2017-04-19T18:55:29.142Z,21.6
2017-04-19T18:56:37.226Z,21.7
2017-04-19T18:57:45.314Z,21.6
2017-04-19T18:58:53.403Z,21.6
2017-04-19T19:00:01.487Z,21.6
2017-04-19T19:01:09.577Z,21.7
2017-04-19T19:02:17.663Z,21.6
2017-04-19T19:03:25.767Z,21.7
2017-04-19T19:04:33.827Z,21.6
2017-04-19T19:05:41.920Z,21.7
2017-04-19T19:06:50.005Z,21.7
2017-04-19T19:07:58.089Z,21.7
2017-04-19T19:09:06.177Z,21.7
2017-04-19T19:10:14.260Z,21.6
2017-04-19T19:11:22.346Z,21.7
2017-04-19T19:12:30.428Z,21.7
2017-04-19T19:13:38.517Z,21.7
2017-04-19T19:14:46.601Z,21.7
2017-04-19T19:15:54.688Z,21.8
2017-04-19T19:17:02.778Z,21.7
2017-04-19T19:18:10.861Z,21.8
2017-04-19T19:19:18.949Z,21.7
2017-04-19T19:20:27.034Z,21.8
2017-04-19T19:21:35.120Z,21.7
2017-04-19T19:22:43.216Z,21.7
2017-04-19T19:23:51.299Z,21.7
2017-04-19T19:24:59.390Z,21.7
2017-04-19T19:26:07.498Z,21.7
2017-04-19T19:27:15.561Z,21.7
2017-04-19T19:28:23.643Z,21.7
2017-04-19T19:29:31.736Z,21.7
2017-04-19T19:30:39.818Z,21.7
2017-04-19T19:31:47.900Z,21.8
2017-04-19T19:32:55.989Z,21.7
2017-04-19T19:34:04.077Z,21.7
2017-04-19T19:35:12.160Z,21.7
2017-04-19T19:36:20.247Z,21.8
2017-04-19T19:37:28.338Z,21.7
2017-04-19T19:38:36.431Z,21.7
2017-04-19T19:39:44.513Z,21.7
2017-04-19T19:40:52.616Z,21.7
2017-04-19T19:42:00.960Z,21.7
2017-04-19T19:43:08.782Z,21.8
2017-04-19T19:44:16.857Z,21.7
2017-04-19T19:45:24.944Z,21.8
2017-04-19T19:46:33.033Z,21.7
2017-04-19T19:47:41.115Z,21.7
2017-04-19T19:48:49.204Z,21.8
2017-04-19T19:49:57.290Z,21.7
2017-04-19T19:51:05.374Z,21.7
2017-04-19T19:52:13.470Z,21.8
2017-04-19T19:53:21.554Z,21.7
2017-04-19T19:54:29.643Z,21.7
2017-04-19T19:55:37.726Z,21.7
2017-04-19T19:56:45.813Z,21.7
2017-04-19T19:57:53.905Z,21.7
2017-04-19T19:59:01.994Z,21.7
2017-04-19T20:00:10.078Z,21.7
2017-04-19T20:01:18.162Z,21.7
2017-04-19T20:02:26.245Z,21.7
2017-04-19T20:03:34.338Z,21.7
2017-04-19T20:04:42.422Z,21.6
2017-04-19T20:05:50.508Z,21.6
2017-04-19T20:06:58.594Z,21.7
2017-04-19T20:08:06.681Z,21.6
2017-04-19T20:09:14.767Z,21.7
2017-04-19T20:10:22.854Z,21.7
2017-04-19T20:11:30.938Z,21.7
2017-04-19T20:12:39.027Z,21.7
2017-04-19T20:13:47.116Z,21.7
2017-04-19T20:14:55.195Z,21.7
2017-04-19T20:16:03.282Z,21.7
2017-04-19T20:17:11.370Z,21.7
2017-04-19T20:18:19.456Z,21.6
2017-04-19T20:19:27.537Z,21.7
2017-04-19T20:20:35.627Z,21.7
2017-04-19T20:21:43.716Z,21.7
2017-04-19T20:22:51.799Z,21.7
2017-04-19T20:23:59.896Z,21.6
2017-04-19T20:25:07.979Z,21.7
2017-04-19T20:26:16.064Z,21.5
2017-04-19T20:27:24.148Z,21.7
2017-04-19T20:28:32.240Z,21.6
2017-04-19T20:29:40.325Z,21.6
2017-04-19T20:30:48.412Z,21.6
2017-04-19T20:31:56.505Z,21.7
2017-04-19T20:33:04.588Z,21.6
2017-04-19T20:34:12.675Z,21.7
2017-04-19T20:35:20.756Z,21.7
2017-04-19T20:36:28.848Z,21.6
2017-04-19T20:37:37.024Z,21.6
2017-04-19T20:38:45.016Z,21.7
2017-04-19T20:39:53.109Z,21.6
2017-04-19T20:41:01.196Z,21.6
2017-04-19T20:42:09.282Z,21.6
2017-04-19T20:43:17.369Z,21.6
2017-04-19T20:44:25.459Z,21.6
2017-04-19T20:45:33.542Z,21.6
2017-04-19T20:46:41.626Z,21.6
2017-04-19T20:47:49.718Z,21.6
2017-04-19T20:48:57.802Z,21.6
2017-04-19T20:50:05.892Z,21.6
2017-04-19T20:51:13.969Z,21.6
2017-04-19T20:52:22.059Z,21.6
2017-04-19T20:53:30.173Z,21.7
2017-04-19T20:54:38.296Z,21.6
2017-04-19T20:55:46.323Z,21.6
2017-04-19T20:56:54.421Z,21.6
2017-04-19T20:58:02.494Z,21.7
2017-04-19T20:59:10.636Z,21.6
2017-04-19T21:00:18.670Z,21.6
2017-04-19T21:01:26.753Z,21.6
2017-04-19T21:02:34.840Z,21.6
2017-04-19T21:03:42.929Z,21.5
2017-04-19T21:04:51.018Z,21.6
2017-04-19T21:05:59.099Z,21.5
2017-04-19T21:07:07.191Z,21.6
2017-04-19T21:08:15.274Z,21.6
2017-04-19T21:09:23.358Z,21.5
2017-04-19T21:10:31.439Z,21.5
2017-04-19T21:11:39.597Z,21.5
2017-04-19T21:12:47.614Z,21.5
2017-04-19T21:13:55.701Z,21.5
2017-04-19T21:15:03.790Z,21.5
2017-04-19T21:16:11.876Z,21.6
2017-04-19T21:17:19.964Z,21.4
2017-04-19T21:18:28.049Z,21.6
2017-04-19T21:19:36.136Z,21.5
2017-04-19T21:20:44.223Z,21.5
2017-04-19T21:21:52.319Z,21.5
2017-04-19T21:23:00.411Z,21.5
2017-04-19T21:24:08.493Z,21.5
2017-04-19T21:25:16.574Z,21.4
2017-04-19T21:26:24.661Z,21.5
2017-04-19T21:27:32.751Z,21.5
2017-04-19T21:28:40.835Z,21.5
2017-04-19T21:29:48.918Z,21.5
2017-04-19T21:30:57.007Z,21.4
2017-04-19T21:32:05.093Z,21.4
2017-04-19T21:33:13.183Z,21.4
2017-04-19T21:34:21.267Z,21.4
2017-04-19T21:35:29.361Z,21.4
2017-04-19T21:36:37.446Z,21.4
2017-04-19T21:37:45.529Z,21.4
2017-04-19T21:38:53.627Z,21.4
2017-04-19T21:40:01.705Z,21.4
2017-04-19T21:41:09.785Z,21.5
2017-04-19T21:42:17.872Z,21.4
2017-04-19T21:43:25.960Z,21.4
2017-04-19T21:44:34.047Z,21.4
2017-04-19T21:45:42.129Z,21.3
2017-04-19T21:46:50.218Z,21.4
2017-04-19T21:47:58.305Z,21.4
2017-04-19T21:49:06.391Z,21.3
2017-04-19T21:50:14.477Z,21.4
2017-04-19T21:51:22.567Z,21.3
2017-04-19T21:52:30.659Z,21.4
2017-04-19T21:53:38.744Z,21.3
2017-04-19T21:54:46.835Z,21.3
2017-04-19T21:55:54.929Z,21.4
2017-04-19T21:57:03.011Z,21.3
2017-04-19T21:58:11.097Z,21.4
2017-04-19T21:59:19.184Z,21.3
2017-04-19T22:00:27.267Z,21.3
2017-04-19T22:01:35.349Z,21.3
2017-04-19T22:02:43.440Z,21.4
2017-04-19T22:03:51.526Z,21.3
2017-04-19T22:04:59.612Z,21.3
2017-04-19T22:06:07.702Z,21.3
2017-04-19T22:07:15.793Z,21.3
2017-04-19T22:08:23.879Z,21.4
2017-04-19T22:09:31.961Z,21.3
2017-04-19T22:10:40.047Z,21.3
2017-04-19T22:11:48.166Z,21.4
2017-04-19T22:12:56.214Z,21.3
2017-04-19T22:14:04.305Z,21.3
2017-04-19T22:15:12.391Z,21.3
2017-04-19T22:16:20.475Z,21.3
2017-04-19T22:17:28.559Z,21.3
2017-04-19T22:18:36.649Z,21.2
2017-04-19T22:19:44.734Z,21.3
2017-04-19T22:20:52.821Z,21.2
2017-04-19T22:22:00.911Z,21.2
2017-04-19T22:23:08.999Z,21.3
2017-04-19T22:24:17.071Z,21.3
2017-04-19T22:25:25.157Z,21.3
2017-04-19T22:26:33.247Z,21.2
2017-04-19T22:27:41.333Z,21.2
2017-04-19T22:28:49.418Z,21.3
2017-04-19T22:29:57.508Z,21.2
2017-04-19T22:31:05.595Z,21.3
2017-04-19T22:32:13.679Z,21.2
2017-04-19T22:33:21.765Z,21.2
2017-04-19T22:34:29.853Z,21.2
2017-04-19T22:35:37.944Z,21.2
2017-04-19T22:36:46.017Z,21.2
2017-04-19T22:37:54.109Z,21.1
2017-04-19T22:39:02.188Z,21.2
2017-04-19T22:40:10.278Z,21.2
2017-04-19T22:41:18.363Z,21.1
2017-04-19T22:42:26.451Z,21.2
2017-04-19T22:43:34.540Z,21.1
2017-04-19T22:44:42.629Z,21.1
2017-04-19T22:45:50.710Z,21.1
2017-04-19T22:46:58.804Z,21.2
2017-04-19T22:48:06.876Z,21.1
2017-04-19T22:49:14.961Z,21.2
2017-04-19T22:50:23.051Z,21.2
2017-04-19T22:51:31.133Z,21.2
2017-04-19T22:52:39.220Z,21.2
2017-04-19T22:53:47.313Z,21.1
2017-04-19T22:54:55.393Z,21.2
2017-04-19T22:56:03.481Z,21.2
2017-04-19T22:57:11.566Z,21.2
2017-04-19T22:58:19.653Z,21.1
2017-04-19T22:59:27.739Z,21.1
2017-04-19T23:00:35.817Z,21.1
2017-04-19T23:01:43.908Z,21.2
2017-04-19T23:02:51.994Z,21.1
2017-04-19T23:04:00.078Z,21.2
2017-04-19T23:05:08.165Z,21.2
2017-04-19T23:06:16.252Z,21.2
2017-04-19T23:07:24.338Z,21.2
2017-04-19T23:08:32.421Z,21.1
2017-04-19T23:09:40.512Z,21.1
2017-04-19T23:10:48.601Z,21.2
2017-04-19T23:11:56.678Z,21.2
2017-04-19T23:13:04.772Z,21.1
2017-04-19T23:14:12.853Z,21.2
2017-04-19T23:15:20.953Z,21.1
2017-04-19T23:16:29.023Z,21.1
2017-04-19T23:17:37.110Z,21.1
2017-04-19T23:18:45.221Z,21.1
2017-04-19T23:19:53.286Z,21.2
2017-04-19T23:21:01.378Z,21.2
2017-04-19T23:22:09.456Z,21.1
2017-04-19T23:23:17.604Z,21.2
2017-04-19T23:24:25.627Z,21.2
2017-04-19T23:25:33.718Z,21.1
2017-04-19T23:26:41.807Z,21.2
2017-04-19T23:27:49.889Z,21.2
2017-04-19T23:28:57.977Z,21.1
2017-04-19T23:30:06.074Z,21.2
2017-04-19T23:31:14.149Z,21.1
2017-04-19T23:32:22.232Z,21.2
2017-04-19T23:33:30.320Z,21.2
2017-04-19T23:34:38.405Z,21.2
2017-04-19T23:35:46.485Z,21.1
2017-04-19T23:36:54.574Z,21.2
2017-04-19T23:38:02.669Z,21.2
2017-04-19T23:39:10.750Z,21.2
2017-04-19T23:40:18.934Z,21.2
2017-04-19T23:41:27.321Z,21.2
2017-04-19T23:42:35.013Z,21.2
2017-04-19T23:43:43.094Z,21.2
2017-04-19T23:44:51.182Z,21.2
2017-04-19T23:45:59.271Z,21.2
2017-04-19T23:47:07.354Z,21.1
2017-04-19T23:48:15.436Z,21.1
2017-04-19T23:49:23.526Z,21.2
2017-04-19T23:50:31.607Z,21.1
2017-04-19T23:51:39.694Z,21.0
2017-04-19T23:52:47.783Z,21.1
2017-04-19T23:53:55.881Z,21.1
2017-04-19T23:55:03.957Z,21.1
2017-04-19T23:56:12.041Z,21.1
2017-04-19T23:57:20.163Z,21.0
2017-04-19T23:58:28.217Z,21.0
2017-04-19T23:59:36.302Z,21.1
